createdAt,value
2022-12-17T00:01:01.968Z,-0.18
2022-12-17T00:03:47.463Z,-0.14
2022-12-17T00:06:34.028Z,-0.14
2022-12-17T00:09:19.423Z,-0.13
2022-12-17T00:12:45.877Z,-0.11
2022-12-17T00:15:53.738Z,-0.13
2022-12-17T00:19:00.594Z,-0.19
2022-12-17T00:22:04.497Z,-0.23
2022-12-17T00:25:08.354Z,-0.29
2022-12-17T00:28:13.683Z,-0.30
2022-12-17T00:31:18.198Z,-0.30
2022-12-17T00:34:22.221Z,-0.34
2022-12-17T00:37:25.993Z,-0.35
2022-12-17T00:40:38.788Z,-0.31
2022-12-17T00:43:44.110Z,-0.25
2022-12-17T00:46:48.090Z,-0.21
2022-12-17T00:49:52.012Z,-0.26
2022-12-17T00:53:00.776Z,-0.29
2022-12-17T00:56:05.029Z,-0.26
2022-12-17T00:59:10.811Z,-0.34
2022-12-17T01:02:14.907Z,-0.45
2022-12-17T01:05:19.276Z,-0.54
2022-12-17T01:08:28.913Z,-0.55
2022-12-17T01:11:32.650Z,-0.49
2022-12-17T01:14:38.281Z,-0.47
2022-12-17T01:17:42.239Z,-0.51
2022-12-17T01:20:46.021Z,-0.56
2022-12-17T01:23:50.115Z,-1.08
2022-12-17T01:26:54.103Z,-0.65
2022-12-17T01:30:01.656Z,-0.81
2022-12-17T01:33:14.683Z,-0.94
2022-12-17T01:36:18.734Z,-1.01
2022-12-17T01:39:23.015Z,-1.04
2022-12-17T01:42:30.435Z,-1.12
2022-12-17T01:45:36.649Z,-1.22
2022-12-17T01:48:46.917Z,-1.30
2022-12-17T01:51:51.286Z,-1.31
2022-12-17T01:54:56.266Z,-1.37
2022-12-17T01:58:00.773Z,-1.42
2022-12-17T02:01:05.128Z,-1.42
2022-12-17T02:04:12.871Z,-1.42
2022-12-17T02:07:29.395Z,-1.37
2022-12-17T02:10:41.917Z,-1.32
2022-12-17T02:14:00.104Z,-1.28
2022-12-17T02:17:14.623Z,-1.33
2022-12-17T02:20:33.875Z,-1.35
2022-12-17T02:23:54.720Z,-1.38
2022-12-17T02:27:16.131Z,-1.34
2022-12-17T02:30:23.765Z,-1.30
2022-12-17T02:33:28.224Z,-1.35
2022-12-17T02:36:32.600Z,-1.34
2022-12-17T02:39:36.425Z,-1.31
2022-12-17T02:42:45.317Z,-1.26
2022-12-17T02:45:51.986Z,-1.31
2022-12-17T02:48:56.288Z,-1.39
2022-12-17T02:52:03.145Z,-1.44
2022-12-17T02:55:10.101Z,-1.44
2022-12-17T02:58:15.976Z,-1.44
2022-12-17T03:01:20.422Z,-1.37
2022-12-17T03:04:24.204Z,-1.25
2022-12-17T03:07:28.047Z,-1.23
2022-12-17T03:10:31.901Z,-1.15
2022-12-17T03:13:43.720Z,-0.99
2022-12-17T03:16:47.614Z,-0.93
2022-12-17T03:19:51.525Z,-1.09
2022-12-17T03:22:55.340Z,-1.12
2022-12-17T03:25:59.174Z,-1.19
2022-12-17T03:29:04.625Z,-1.20
2022-12-17T03:32:08.490Z,-1.19
2022-12-17T03:35:12.983Z,-1.05
2022-12-17T03:38:16.742Z,-0.91
2022-12-17T03:41:20.835Z,-0.90
2022-12-17T03:44:26.174Z,-0.80
2022-12-17T03:47:30.055Z,-0.81
2022-12-17T03:50:33.974Z,-0.82
2022-12-17T03:53:38.528Z,-0.80
2022-12-17T03:56:42.865Z,-0.74
2022-12-17T03:59:48.294Z,-0.69
2022-12-17T04:02:52.350Z,-0.76
2022-12-17T04:05:57.131Z,-0.83
2022-12-17T04:09:00.991Z,-0.88
2022-12-17T04:12:05.148Z,-0.93
2022-12-17T04:15:10.072Z,-0.90
2022-12-17T04:18:14.499Z,-0.96
2022-12-17T04:21:18.513Z,-0.96
2022-12-17T04:24:22.434Z,-1.03
2022-12-17T04:27:26.547Z,-0.99
2022-12-17T04:30:34.430Z,-0.93
2022-12-17T04:33:50.155Z,-0.94
2022-12-17T04:36:54.217Z,-0.94
2022-12-17T04:39:58.037Z,-0.96
2022-12-17T04:43:02.055Z,-0.96
2022-12-17T04:46:09.189Z,-0.96
2022-12-17T04:49:13.387Z,-0.97
2022-12-17T04:52:17.186Z,-0.89
2022-12-17T04:55:21.163Z,-0.92
2022-12-17T04:58:26.004Z,-1.02
2022-12-17T05:01:31.540Z,-1.10
2022-12-17T05:04:35.440Z,-1.04
2022-12-17T05:07:39.886Z,-1.08
2022-12-17T05:10:43.873Z,-1.13
2022-12-17T05:13:47.828Z,-1.21
2022-12-17T05:16:53.341Z,-1.17
2022-12-17T05:19:57.315Z,-1.25
2022-12-17T05:23:01.215Z,-1.23
2022-12-17T05:26:05.140Z,-1.17
2022-12-17T05:29:15.437Z,-1.12
2022-12-17T05:32:20.851Z,-1.13
2022-12-17T05:35:25.673Z,-1.09
2022-12-17T05:38:30.286Z,-1.11
2022-12-17T05:41:34.268Z,-1.14
2022-12-17T05:44:38.630Z,-1.23
2022-12-17T05:47:43.779Z,-1.28
2022-12-17T05:50:47.636Z,-1.29
2022-12-17T05:54:03.102Z,-1.31
2022-12-17T05:57:07.259Z,-1.36
2022-12-17T06:00:10.954Z,-1.61
2022-12-17T06:03:20.518Z,-1.70
2022-12-17T06:06:24.724Z,-1.66
2022-12-17T06:09:28.737Z,-1.60
2022-12-17T06:12:32.736Z,-1.55
2022-12-17T06:15:36.706Z,-1.50
2022-12-17T06:18:41.592Z,-1.48
2022-12-17T06:21:57.262Z,-1.45
2022-12-17T06:25:01.452Z,-1.46
2022-12-17T06:28:05.317Z,-1.60
2022-12-17T06:31:10.273Z,-1.78
2022-12-17T06:34:16.013Z,-1.97
2022-12-17T06:37:20.269Z,-1.99
2022-12-17T06:40:25.132Z,-2.12
2022-12-17T06:43:29.022Z,-2.20
2022-12-17T06:46:38.191Z,-2.25
2022-12-17T06:49:43.465Z,-2.26
2022-12-17T06:52:47.480Z,-2.17
2022-12-17T06:55:51.395Z,-2.12
2022-12-17T06:58:55.810Z,-2.21
2022-12-17T07:01:59.785Z,-2.26
2022-12-17T07:05:04.993Z,-2.34
2022-12-17T07:08:15.792Z,-2.38
2022-12-17T07:11:20.168Z,-2.40
2022-12-17T07:14:23.978Z,-2.37
2022-12-17T07:17:27.930Z,-2.40
2022-12-17T07:20:33.457Z,-2.46
2022-12-17T07:23:34.208Z,-2.48
2022-12-17T07:26:40.843Z,-2.47
2022-12-17T07:29:44.545Z,-2.52
2022-12-17T07:32:48.467Z,-2.52
2022-12-17T07:35:54.083Z,-2.53
2022-12-17T07:38:57.853Z,-2.56
2022-12-17T07:42:02.156Z,-2.61
2022-12-17T07:45:06.497Z,-2.63
2022-12-17T07:48:11.236Z,-2.60
2022-12-17T07:51:16.486Z,-2.64
2022-12-17T07:54:20.240Z,-2.73
2022-12-17T07:57:24.660Z,-2.65
2022-12-17T08:00:31.285Z,-2.59
2022-12-17T08:03:35.637Z,-2.55
2022-12-17T08:06:41.851Z,-2.57
2022-12-17T08:09:45.857Z,-2.60
2022-12-17T08:12:49.776Z,-2.67
2022-12-17T08:15:53.526Z,-2.75
2022-12-17T08:18:57.960Z,-2.85
2022-12-17T08:22:03.003Z,-2.80
2022-12-17T08:25:06.967Z,-2.91
2022-12-17T08:28:41.105Z,-2.95
2022-12-17T08:31:39.363Z,-2.98
2022-12-17T08:34:43.236Z,-2.98
2022-12-17T08:37:49.435Z,-2.94
2022-12-17T08:40:53.426Z,-2.90
2022-12-17T08:43:57.284Z,-2.90
2022-12-17T08:47:01.075Z,-2.91
2022-12-17T08:50:04.941Z,-2.90
2022-12-17T08:53:16.502Z,-2.89
2022-12-17T08:56:20.310Z,-2.88
2022-12-17T08:59:24.832Z,-2.83
2022-12-17T09:02:34.195Z,-2.82
2022-12-17T09:05:38.946Z,-2.90
2022-12-17T09:08:44.492Z,-2.96
2022-12-17T09:11:48.413Z,-2.98
2022-12-17T09:14:52.099Z,-2.94
2022-12-17T09:17:56.237Z,-2.94
2022-12-17T09:21:00.314Z,-2.94
2022-12-17T09:24:08.697Z,-2.93
2022-12-17T09:27:12.548Z,-2.87
2022-12-17T09:30:16.571Z,-2.81
2022-12-17T09:33:20.877Z,-2.80
2022-12-17T09:36:26.320Z,-2.78
2022-12-17T09:39:31.712Z,-2.73
2022-12-17T09:42:43.346Z,-2.72
2022-12-17T09:46:01.216Z,-2.71
2022-12-17T09:49:14.089Z,-2.68
2022-12-17T09:52:18.161Z,-2.63
2022-12-17T09:55:33.874Z,-2.67
2022-12-17T09:58:40.549Z,-2.76
2022-12-17T10:01:53.391Z,-2.68
2022-12-17T10:05:01.150Z,-2.50
2022-12-17T10:08:05.982Z,-2.47
2022-12-17T10:11:11.981Z,-2.40
2022-12-17T10:14:15.924Z,-2.34
2022-12-17T10:17:20.412Z,-2.27
2022-12-17T10:20:37.000Z,-2.10
2022-12-17T10:23:45.906Z,-1.81
2022-12-17T10:26:53.903Z,-1.68
2022-12-17T10:30:01.181Z,-1.58
2022-12-17T10:33:13.943Z,-1.49
2022-12-17T10:36:17.860Z,-1.60
2022-12-17T10:39:22.537Z,-1.59
2022-12-17T10:42:39.154Z,-1.66
2022-12-17T10:45:44.534Z,-1.70
2022-12-17T10:48:50.052Z,-1.68
2022-12-17T10:51:56.062Z,-1.68
2022-12-17T10:55:00.530Z,-1.62
2022-12-17T10:58:08.213Z,-1.62
2022-12-17T11:01:18.578Z,-1.55
2022-12-17T11:04:22.261Z,-1.45
2022-12-17T11:07:28.953Z,-1.37
2022-12-17T11:10:35.837Z,-1.32
2022-12-17T11:13:49.865Z,-1.23
2022-12-17T11:17:00.951Z,-1.30
2022-12-17T11:25:22.010Z,-0.93
2022-12-17T11:28:35.969Z,-0.90
2022-12-17T11:32:02.543Z,-0.81
2022-12-17T11:35:20.727Z,-0.68
2022-12-17T11:38:35.571Z,-0.57
2022-12-17T11:41:52.993Z,-0.51
2022-12-17T11:45:09.446Z,-0.49
2022-12-17T11:48:18.449Z,-0.53
2022-12-17T11:51:34.484Z,-0.51
2022-12-17T11:54:53.292Z,-0.51
2022-12-17T11:58:08.606Z,-0.47
2022-12-17T12:01:22.918Z,-0.47
2022-12-17T12:04:39.974Z,-0.49
2022-12-17T12:07:54.934Z,-0.44
2022-12-17T12:11:06.184Z,-0.44
2022-12-17T12:14:21.519Z,-0.47
2022-12-17T12:17:45.009Z,-0.46
2022-12-17T12:21:07.002Z,-0.46
2022-12-17T12:24:26.774Z,-0.48
2022-12-17T12:27:43.018Z,-0.44
2022-12-17T12:30:59.828Z,-0.42
2022-12-17T12:34:11.517Z,-0.40
2022-12-17T12:37:18.964Z,-0.36
2022-12-17T12:40:32.494Z,-0.31
2022-12-17T12:43:47.105Z,-0.24
2022-12-17T12:47:00.555Z,-0.26
2022-12-17T12:50:14.091Z,-0.25
2022-12-17T12:53:19.009Z,-0.10
2022-12-17T12:56:37.903Z,0.04
2022-12-17T12:59:50.150Z,0.06
2022-12-17T13:02:55.107Z,0.11
2022-12-17T13:05:44.935Z,0.17
2022-12-17T13:08:33.394Z,0.27
2022-12-17T13:11:30.585Z,0.38
2022-12-17T13:14:24.093Z,0.42
2022-12-17T13:17:27.213Z,0.43
2022-12-17T13:20:38.861Z,0.39
2022-12-17T13:23:32.452Z,0.43
2022-12-17T13:26:25.079Z,0.43
2022-12-17T13:29:24.533Z,0.34
2022-12-17T13:32:22.407Z,0.44
2022-12-17T13:35:32.501Z,0.51
2022-12-17T13:38:26.904Z,0.47
2022-12-17T13:41:16.171Z,0.48
2022-12-17T13:44:14.174Z,0.46
2022-12-17T13:47:00.949Z,0.42
2022-12-17T13:50:24.835Z,0.39
2022-12-17T13:53:17.453Z,0.35
2022-12-17T13:56:06.038Z,0.30
2022-12-17T13:58:54.460Z,0.27
2022-12-17T14:01:46.752Z,0.24
2022-12-17T14:04:37.268Z,0.19
2022-12-17T14:07:25.428Z,0.18
2022-12-17T14:10:22.816Z,0.17
2022-12-17T14:13:14.691Z,0.11
2022-12-17T14:16:01.539Z,0.05
2022-12-17T14:18:52.514Z,0.06
2022-12-17T14:21:41.377Z,0.02
2022-12-17T14:24:30.082Z,-0.01
2022-12-17T14:27:42.561Z,-0.04
2022-12-17T14:30:46.178Z,-0.06
2022-12-17T14:33:38.933Z,-0.05
2022-12-17T14:36:25.591Z,-0.08
2022-12-17T14:39:19.431Z,-0.11
2022-12-17T14:42:29.930Z,-0.17
2022-12-17T14:45:25.613Z,-0.24
2022-12-17T14:48:17.180Z,-0.23
2022-12-17T14:51:03.737Z,-0.21
2022-12-17T14:53:50.037Z,-0.26
2022-12-17T14:56:37.038Z,-0.28
2022-12-17T14:59:32.773Z,-0.35
2022-12-17T15:02:26.269Z,-0.35
2022-12-17T15:05:16.920Z,-0.41
2022-12-17T15:08:03.625Z,-0.45
2022-12-17T15:10:50.301Z,-0.45
2022-12-17T15:13:36.984Z,-0.51
2022-12-17T15:16:24.176Z,-0.56
2022-12-17T15:19:10.691Z,-0.61
2022-12-17T15:22:56.565Z,-0.66
2022-12-17T15:25:46.724Z,-0.65
2022-12-17T15:28:33.625Z,-0.66
2022-12-17T15:31:29.530Z,-0.67
2022-12-17T15:34:20.061Z,-0.78
2022-12-17T15:37:06.953Z,-0.79
2022-12-17T15:39:56.301Z,-0.84
2022-12-17T15:43:05.844Z,-0.87
2022-12-17T15:45:53.570Z,-0.87
2022-12-17T15:48:44.820Z,-0.81
2022-12-17T15:51:35.023Z,-0.82
2022-12-17T15:54:22.715Z,-0.82
2022-12-17T15:57:16.828Z,-0.82
2022-12-17T16:00:06.519Z,-0.83
2022-12-17T16:02:53.531Z,-1.03
2022-12-17T16:05:43.126Z,-0.97
2022-12-17T16:08:32.582Z,-0.99
2022-12-17T16:11:18.845Z,-1.00
2022-12-17T16:14:07.108Z,-1.02
2022-12-17T16:16:53.900Z,-1.05
2022-12-17T16:19:42.378Z,-1.10
2022-12-17T17:00:04.440Z,-1.30
2022-12-17T17:02:53.525Z,-1.30
2022-12-17T17:05:41.022Z,-1.34
2022-12-17T17:12:25.502Z,-1.45
2022-12-17T17:15:13.896Z,-1.43
2022-12-17T17:18:02.035Z,-1.44
2022-12-17T17:20:48.594Z,-1.42
2022-12-17T17:23:35.395Z,-1.43
2022-12-17T17:26:22.840Z,-1.45
2022-12-17T17:33:46.603Z,-1.51
2022-12-17T17:36:33.665Z,-1.54
2022-12-17T17:39:20.124Z,-1.56
2022-12-17T17:43:21.660Z,-1.59
2022-12-17T17:46:09.800Z,-1.65
2022-12-17T17:48:59.699Z,-1.64
2022-12-17T17:52:09.328Z,-1.66
2022-12-17T17:57:57.502Z,-1.72
2022-12-17T18:00:46.194Z,-1.75
2022-12-17T18:03:32.721Z,-1.80
2022-12-17T18:06:20.756Z,-1.88
2022-12-17T18:09:08.576Z,-1.95
2022-12-17T18:11:55.017Z,-1.96
2022-12-17T18:14:46.753Z,-1.97
2022-12-17T18:17:44.815Z,-2.06
2022-12-17T18:20:31.748Z,-2.02
2022-12-17T18:24:18.513Z,-2.05
2022-12-17T18:27:05.932Z,-2.08
2022-12-17T18:29:52.994Z,-2.09
2022-12-17T18:32:43.973Z,-2.15
2022-12-17T18:35:31.227Z,-2.12
2022-12-17T18:38:18.801Z,-2.13
2022-12-17T18:41:29.372Z,-2.17
2022-12-17T18:44:16.083Z,-2.26
2022-12-17T18:47:03.544Z,-2.24
2022-12-17T18:49:50.582Z,-2.29
2022-12-17T18:52:37.739Z,-2.30
2022-12-17T18:55:24.948Z,-2.31
2022-12-17T18:58:13.514Z,-2.28
2022-12-17T19:01:00.865Z,-2.24
2022-12-17T19:03:48.068Z,-2.28
2022-12-17T19:06:39.481Z,-2.30
2022-12-17T19:09:29.027Z,-2.33
2022-12-17T19:12:16.122Z,-2.35
2022-12-17T19:15:05.465Z,-2.38
2022-12-17T19:17:54.006Z,-2.39
2022-12-17T19:20:41.626Z,-2.44
2022-12-17T19:23:33.310Z,-2.44
2022-12-17T19:26:22.267Z,-2.44
2022-12-17T19:29:10.623Z,-2.48
2022-12-17T19:32:00.231Z,-2.51
2022-12-17T19:34:47.345Z,-2.48
2022-12-17T19:37:36.623Z,-2.49
2022-12-17T19:40:24.676Z,-2.51
2022-12-17T19:43:11.756Z,-2.55
2022-12-17T19:46:12.568Z,-2.54
2022-12-17T19:49:05.452Z,-2.55
2022-12-17T19:51:52.961Z,-2.56
2022-12-17T19:54:39.871Z,-2.56
2022-12-17T19:57:27.360Z,-2.57
2022-12-17T20:00:15.778Z,-2.57
2022-12-17T20:03:03.729Z,-2.59
2022-12-17T20:05:55.510Z,-2.61
2022-12-17T20:08:42.890Z,-2.66
2022-12-17T20:11:36.499Z,-2.72
2022-12-17T20:14:28.703Z,-2.69
2022-12-17T20:17:15.954Z,-2.68
2022-12-17T20:20:03.375Z,-2.77
2022-12-17T20:22:51.936Z,-2.67
2022-12-17T20:25:39.242Z,-2.69
2022-12-17T20:28:26.435Z,-2.68
2022-12-17T20:31:13.906Z,-2.65
2022-12-17T20:34:03.559Z,-2.63
2022-12-17T20:36:51.071Z,-2.66
2022-12-17T20:39:39.792Z,-2.66
2022-12-17T20:42:27.322Z,-2.77
2022-12-17T20:45:14.641Z,-2.68
2022-12-17T20:48:01.915Z,-2.69
2022-12-17T20:50:49.411Z,-2.70
2022-12-17T20:53:46.333Z,-2.65
2022-12-17T20:56:36.491Z,-2.59
2022-12-17T20:59:23.840Z,-2.56
2022-12-17T21:02:11.415Z,-2.57
2022-12-17T21:05:01.535Z,-2.58
2022-12-17T21:07:50.789Z,-2.61
2022-12-17T21:10:37.625Z,-2.63
2022-12-17T21:13:31.759Z,-2.66
2022-12-17T21:16:21.257Z,-2.83
2022-12-17T21:19:11.140Z,-2.68
2022-12-17T21:21:58.242Z,-2.71
2022-12-17T21:24:45.315Z,-2.82
2022-12-17T21:27:33.057Z,-2.78
2022-12-17T21:30:21.643Z,-2.72
2022-12-17T21:33:08.856Z,-2.73
2022-12-17T21:36:07.990Z,-2.74
2022-12-17T21:38:59.366Z,-2.74
2022-12-17T21:42:03.385Z,-2.76
2022-12-17T21:44:50.407Z,-2.80
2022-12-17T21:47:38.842Z,-2.86
2022-12-17T21:50:26.035Z,-2.85
2022-12-17T21:53:13.756Z,-2.86
2022-12-17T21:56:05.216Z,-2.91
2022-12-17T21:58:57.604Z,-2.88
2022-12-17T22:01:45.280Z,-2.85
2022-12-17T22:04:34.207Z,-3.18
2022-12-17T22:07:23.082Z,-2.89
2022-12-17T22:10:35.875Z,-2.91
2022-12-17T22:13:39.789Z,-3.19
2022-12-17T22:16:27.781Z,-2.94
2022-12-17T22:19:16.462Z,-2.91
2022-12-17T22:22:06.006Z,-3.01
2022-12-17T22:24:53.049Z,-2.97
2022-12-17T22:27:43.681Z,-2.97
2022-12-17T22:30:48.246Z,-3.01
2022-12-17T22:34:00.028Z,-2.99
2022-12-17T22:38:45.434Z,-2.97
2022-12-17T22:42:42.810Z,-2.92
2022-12-17T22:44:48.776Z,-2.96
2022-12-17T22:46:26.421Z,-3.00
2022-12-17T22:49:16.271Z,-3.02
2022-12-17T22:52:03.563Z,-3.07
2022-12-17T22:54:52.433Z,-3.11
2022-12-17T22:57:43.927Z,-3.15
2022-12-17T23:00:34.007Z,-3.18
2022-12-17T23:03:21.192Z,-3.20
2022-12-17T23:06:12.910Z,-3.26
2022-12-17T23:09:00.180Z,-3.40
2022-12-17T23:11:49.513Z,-3.32
2022-12-17T23:14:36.635Z,-3.33
2022-12-17T23:17:24.009Z,-3.39
2022-12-17T23:20:14.411Z,-3.37
2022-12-17T23:23:01.816Z,-3.38
2022-12-17T23:25:48.916Z,-3.43
2022-12-17T23:28:39.902Z,-3.46
2022-12-17T23:31:29.612Z,-3.49
2022-12-17T23:34:16.857Z,-3.46
2022-12-17T23:37:04.035Z,-3.39
2022-12-17T23:39:51.333Z,-3.41
2022-12-17T23:42:39.256Z,-3.39
2022-12-17T23:45:28.444Z,-3.40
2022-12-17T23:48:17.281Z,-3.40
2022-12-17T23:51:08.989Z,-3.40
2022-12-17T23:53:56.264Z,-3.39
2022-12-17T23:56:46.499Z,-3.40
2022-12-17T23:59:33.738Z,-3.38
